Time;durP1;ratioP1;P1;durP2;ratioP2;P2;SDS_P1;SDS_P2;PMS_P1;PMS_P2;Temp;Humidity;BMP_temperature;BMP_pressure;BME280_temperature;BME280_humidity;BME280_pressure;Samples;Min_cycle;Max_cycle;Signal;HPM_P1;HPM_P2
2022/10/27 00:01:08;;;;;;;750.63;701.00;;;12.10;99.90;;;;;;4959660;29;20465;-86
2022/10/27 00:03:36;;;;;;;731.60;683.50;;;12.10;99.90;;;;;;4959572;28;20452;-84
2022/10/27 00:06:05;;;;;;;722.97;678.67;;;12.10;99.90;;;;;;4959377;29;20491;-85
2022/10/27 00:08:33;;;;;;;734.10;689.03;;;12.00;99.90;;;;;;4959455;29;20467;-85
2022/10/27 00:11:02;;;;;;;725.50;683.00;;;12.00;99.90;;;;;;4959563;29;20455;-85
2022/10/27 00:13:29;;;;;;;711.43;670.17;;;11.90;99.90;;;;;;4959390;29;20480;-85
2022/10/27 00:15:57;;;;;;;712.90;671.63;;;11.90;99.90;;;;;;4959264;29;20503;-84
2022/10/27 00:18:24;;;;;;;733.90;690.60;;;11.80;99.90;;;;;;4959426;28;20455;-85
2022/10/27 00:20:58;;;;;;;755.80;709.53;;;11.70;99.90;;;;;;4959566;29;20476;-85
2022/10/27 00:23:25;;;;;;;783.57;731.93;;;11.70;99.90;;;;;;4958908;29;20455;-85
2022/10/27 00:25:54;;;;;;;797.47;742.77;;;11.70;99.90;;;;;;4959048;28;20452;-84
2022/10/27 00:28:20;;;;;;;773.53;720.50;;;11.60;99.90;;;;;;4958951;29;20456;-84
2022/10/27 00:30:47;;;;;;;789.87;735.00;;;11.60;99.90;;;;;;4958617;29;20487;-85
2022/10/27 00:33:14;;;;;;;811.07;751.10;;;11.50;99.90;;;;;;4958762;29;20507;-84
2022/10/27 00:35:41;;;;;;;806.70;744.93;;;11.60;99.90;;;;;;4958946;28;20459;-85
2022/10/27 00:38:07;;;;;;;799.53;738.63;;;11.60;99.90;;;;;;4958888;29;20491;-84
2022/10/27 00:40:37;;;;;;;796.07;735.13;;;11.60;99.90;;;;;;4959750;28;20491;-84
2022/10/27 00:43:27;;;;;;;803.93;742.23;;;11.60;99.90;;;;;;4958778;28;20453;-85
2022/10/27 00:45:56;;;;;;;787.33;726.27;;;11.50;99.90;;;;;;4958743;28;20950;-85
2022/10/27 00:48:25;;;;;;;789.00;727.50;;;11.50;99.90;;;;;;4958748;28;20451;-85
2022/10/27 00:50:52;;;;;;;791.10;728.87;;;11.60;99.90;;;;;;4958890;29;20488;-85
2022/10/27 00:53:19;;;;;;;800.37;735.60;;;11.40;99.90;;;;;;4958744;29;20864;-85
2022/10/27 00:55:46;;;;;;;797.33;732.03;;;11.50;99.90;;;;;;4958246;29;20468;-85
2022/10/27 00:58:16;;;;;;;789.47;725.17;;;11.50;99.90;;;;;;4958802;29;20460;-85
2022/10/27 01:00:44;;;;;;;789.53;726.27;;;11.50;99.90;;;;;;4957546;29;20476;-85
2022/10/27 01:03:14;;;;;;;789.90;724.60;;;11.40;99.90;;;;;;4957611;29;20451;-85
2022/10/27 01:05:42;;;;;;;787.93;723.23;;;11.40;99.90;;;;;;4958027;29;20839;-85
2022/10/27 01:08:10;;;;;;;787.57;722.53;;;11.40;99.90;;;;;;4958056;29;20456;-86
2022/10/27 01:10:36;;;;;;;797.27;733.20;;;11.40;99.90;;;;;;4958712;29;20476;-84
2022/10/27 01:13:03;;;;;;;792.53;729.60;;;11.40;99.90;;;;;;4958442;29;20460;-85
2022/10/27 01:15:37;;;;;;;792.83;730.13;;;11.30;99.90;;;;;;4958299;28;20462;-85
2022/10/27 01:18:18;;;;;;;799.30;736.20;;;11.20;99.90;;;;;;4958269;29;20460;-85
2022/10/27 01:21:05;;;;;;;807.43;743.30;;;11.10;99.90;;;;;;4958265;29;20479;-84
2022/10/27 01:23:46;;;;;;;828.50;762.00;;;11.00;99.90;;;;;;4958010;28;20451;-85
2022/10/27 01:26:37;;;;;;;826.27;754.50;;;11.00;99.90;;;;;;4958254;29;20455;-84
2022/10/27 01:29:30;;;;;;;815.87;746.33;;;11.20;99.90;;;;;;4950058;28;20542;-85
2022/10/27 01:32:05;;;;;;;799.60;729.00;;;11.00;99.90;;;;;;4950745;28;20452;-85
2022/10/27 01:34:39;;;;;;;795.13;725.27;;;11.10;99.90;;;;;;4957771;29;20487;-85
2022/10/27 01:37:14;;;;;;;800.40;728.20;;;11.10;99.90;;;;;;4958443;29;20486;-85
2022/10/27 01:39:48;;;;;;;794.43;721.07;;;11.00;99.90;;;;;;4957944;29;20491;-84
2022/10/27 01:42:19;;;;;;;795.10;721.40;;;11.00;99.90;;;;;;4960487;29;20463;-84
2022/10/27 01:44:49;;;;;;;793.70;718.70;;;11.20;99.90;;;;;;4957629;29;20847;-85
2022/10/27 01:47:18;;;;;;;795.27;720.17;;;11.20;99.90;;;;;;4957809;29;20456;-85
2022/10/27 01:49:45;;;;;;;794.07;719.37;;;11.20;99.90;;;;;;4957911;29;20483;-84
2022/10/27 01:52:50;;;;;;;791.27;717.20;;;11.30;99.90;;;;;;4958008;29;20463;-84
2022/10/27 01:55:26;;;;;;;799.53;725.07;;;11.30;99.90;;;;;;4946729;28;20863;-87
2022/10/27 01:58:16;;;;;;;800.43;726.53;;;11.20;99.90;;;;;;4958022;29;20460;-85
2022/10/27 02:00:54;;;;;;;801.27;727.10;;;11.30;99.90;;;;;;4957835;29;20476;-84
2022/10/27 02:03:31;;;;;;;790.20;715.50;;;11.40;99.90;;;;;;4957406;29;20463;-84
2022/10/27 02:06:07;;;;;;;788.10;713.50;;;11.50;99.90;;;;;;4957414;29;20464;-84
2022/10/27 02:08:40;;;;;;;796.63;721.63;;;11.80;99.90;;;;;;4958377;28;20510;-85
2022/10/27 02:11:08;;;;;;;797.83;721.20;;;11.70;99.90;;;;;;4958529;29;20463;-84
2022/10/27 02:13:38;;;;;;;805.67;729.77;;;11.80;99.90;;;;;;4957422;29;20857;-85
2022/10/27 02:16:08;;;;;;;809.90;734.37;;;11.90;99.90;;;;;;4957650;29;20463;-85
2022/10/27 02:18:39;;;;;;;809.70;734.40;;;11.80;99.90;;;;;;4957276;29;20463;-85
2022/10/27 02:21:09;;;;;;;797.67;722.13;;;11.90;99.90;;;;;;4957496;29;20471;-85
2022/10/27 02:23:36;;;;;;;807.07;731.50;;;11.80;99.90;;;;;;4957535;29;20452;-84
2022/10/27 02:26:11;;;;;;;815.70;740.50;;;11.80;99.90;;;;;;4957161;29;20466;-86
2022/10/27 02:28:43;;;;;;;817.20;742.60;;;11.70;99.90;;;;;;4959387;28;20465;-85
2022/10/27 02:31:12;;;;;;;816.63;741.23;;;11.60;99.90;;;;;;4961361;29;20460;-84
2022/10/27 02:33:41;;;;;;;808.10;733.47;;;11.50;99.90;;;;;;4961005;28;20484;-84
2022/10/27 02:36:08;;;;;;;825.30;750.10;;;11.50;99.90;;;;;;4960903;29;20455;-84
2022/10/27 02:38:34;;;;;;;808.97;732.40;;;11.40;99.90;;;;;;4961515;28;20455;-85
2022/10/27 02:41:01;;;;;;;810.50;735.07;;;11.50;99.90;;;;;;4960455;29;20460;-84
2022/10/27 02:43:28;;;;;;;795.20;720.97;;;11.40;99.90;;;;;;4960155;28;20804;-84
2022/10/27 02:45:54;;;;;;;812.63;737.17;;;11.30;99.90;;;;;;4960825;29;20467;-84
2022/10/27 02:48:21;;;;;;;816.90;741.10;;;11.30;99.90;;;;;;4960874;28;20452;-84
2022/10/27 02:50:49;;;;;;;826.80;750.13;;;11.30;99.90;;;;;;4960496;29;20476;-85
2022/10/27 02:53:16;;;;;;;800.93;724.50;;;11.30;99.90;;;;;;4959976;29;20518;-84
2022/10/27 02:55:42;;;;;;;812.20;735.67;;;11.20;99.90;;;;;;4960271;29;20511;-84
2022/10/27 02:58:09;;;;;;;810.73;732.93;;;11.30;99.90;;;;;;4960918;29;20456;-84
2022/10/27 03:00:36;;;;;;;799.67;722.47;;;11.30;99.90;;;;;;4960460;28;20510;-85
2022/10/27 03:03:02;;;;;;;796.40;719.83;;;11.40;99.90;;;;;;4960613;29;20883;-86
2022/10/27 03:05:29;;;;;;;795.20;718.20;;;11.50;99.90;;;;;;4960336;29;20460;-84
2022/10/27 03:07:57;;;;;;;791.80;716.40;;;11.50;99.90;;;;;;4960502;29;20459;-84
2022/10/27 03:10:24;;;;;;;795.50;719.63;;;11.50;99.90;;;;;;4960467;29;20479;-84
2022/10/27 03:12:51;;;;;;;790.50;715.00;;;11.70;99.90;;;;;;4960850;29;20455;-84
2022/10/27 03:15:17;;;;;;;798.30;721.80;;;11.60;99.90;;;;;;4959981;28;20490;-84
2022/10/27 03:17:45;;;;;;;786.50;710.27;;;11.60;99.90;;;;;;4960237;28;20459;-84
2022/10/27 03:20:13;;;;;;;788.70;711.90;;;11.50;99.90;;;;;;4960298;28;20476;-84
2022/10/27 03:22:40;;;;;;;795.37;718.10;;;11.40;99.90;;;;;;4960656;29;20466;-84
2022/10/27 03:25:10;;;;;;;804.50;728.03;;;11.40;99.90;;;;;;4960372;29;20460;-84
2022/10/27 03:27:39;;;;;;;785.03;709.13;;;11.50;99.90;;;;;;4960044;29;20480;-85
2022/10/27 03:30:07;;;;;;;795.67;719.70;;;11.40;99.90;;;;;;4959871;29;20472;-84
2022/10/27 03:32:34;;;;;;;795.00;718.00;;;11.40;99.90;;;;;;4962300;28;20460;-84
2022/10/27 03:35:00;;;;;;;791.87;716.17;;;11.40;99.90;;;;;;4959454;28;20483;-84
2022/10/27 03:37:27;;;;;;;782.07;705.37;;;11.50;99.90;;;;;;4960237;29;20460;-83
2022/10/27 03:39:54;;;;;;;787.30;711.60;;;11.40;99.90;;;;;;4958791;28;20491;-84
2022/10/27 03:42:22;;;;;;;786.53;711.13;;;11.50;99.90;;;;;;4960265;29;20459;-84
2022/10/27 03:44:48;;;;;;;786.57;711.27;;;11.40;99.90;;;;;;4959660;29;20459;-84
2022/10/27 03:47:15;;;;;;;801.47;724.27;;;11.30;99.90;;;;;;4959378;29;20460;-83
2022/10/27 03:49:42;;;;;;;803.30;727.00;;;11.20;99.90;;;;;;4959426;28;20503;-84
2022/10/27 03:52:09;;;;;;;793.87;718.00;;;11.10;99.90;;;;;;4959965;28;20460;-84
2022/10/27 03:54:36;;;;;;;802.53;725.80;;;11.00;99.90;;;;;;4958879;29;20480;-84
2022/10/27 03:57:03;;;;;;;801.60;724.97;;;11.10;99.90;;;;;;4959071;29;20468;-84
2022/10/27 03:59:31;;;;;;;798.57;721.83;;;11.00;99.90;;;;;;4959921;29;20484;-83
2022/10/27 04:01:57;;;;;;;807.00;730.10;;;11.10;99.90;;;;;;4959658;28;20467;-84
2022/10/27 04:04:24;;;;;;;817.60;739.90;;;11.00;99.90;;;;;;4959227;29;20456;-83
2022/10/27 04:06:51;;;;;;;821.67;744.07;;;11.00;99.90;;;;;;4959528;29;20483;-84
2022/10/27 04:09:17;;;;;;;798.40;721.73;;;11.00;99.90;;;;;;4959126;28;20609;-84
2022/10/27 04:11:44;;;;;;;796.23;719.90;;;11.10;99.90;;;;;;4959403;29;20958;-84
2022/10/27 04:14:11;;;;;;;807.13;730.77;;;11.20;99.90;;;;;;4958771;29;20480;-84
2022/10/27 04:16:40;;;;;;;805.70;729.03;;;11.00;99.90;;;;;;4959545;29;20452;-84
2022/10/27 04:19:07;;;;;;;803.27;728.30;;;11.10;99.90;;;;;;4958984;29;20479;-84
2022/10/27 04:21:34;;;;;;;808.73;733.00;;;11.00;99.90;;;;;;4959558;29;20460;-84
2022/10/27 04:24:00;;;;;;;805.07;729.00;;;11.00;99.90;;;;;;4960617;28;20463;-83
2022/10/27 04:26:27;;;;;;;800.40;724.00;;;11.00;99.90;;;;;;4969727;28;20456;-82
2022/10/27 04:28:54;;;;;;;805.20;729.57;;;11.00;99.90;;;;;;4977825;28;20483;-84
2022/10/27 04:31:20;;;;;;;813.60;736.73;;;10.90;99.90;;;;;;4977316;29;20444;-83
2022/10/27 04:33:51;;;;;;;806.97;730.97;;;10.80;99.90;;;;;;4976764;29;20439;-84
2022/10/27 04:36:18;;;;;;;803.57;727.10;;;10.80;99.90;;;;;;4968083;29;20445;-83
2022/10/27 04:38:51;;;;;;;805.57;729.27;;;10.80;99.90;;;;;;4958818;29;20835;-84
2022/10/27 04:41:17;;;;;;;810.77;734.07;;;10.70;99.90;;;;;;4959216;29;20462;-84
2022/10/27 04:43:44;;;;;;;798.43;722.50;;;10.70;99.90;;;;;;4959514;28;20459;-83
2022/10/27 04:46:11;;;;;;;803.10;726.73;;;10.80;99.90;;;;;;4959185;29;20451;-83
2022/10/27 04:48:37;;;;;;;802.87;727.00;;;10.70;99.90;;;;;;4958696;28;20456;-83
2022/10/27 04:51:06;;;;;;;798.97;722.70;;;10.70;99.90;;;;;;4958859;28;20458;-83
2022/10/27 04:53:33;;;;;;;790.87;714.47;;;10.70;99.90;;;;;;4958574;28;20455;-83
2022/10/27 04:55:59;;;;;;;797.90;722.40;;;10.80;99.90;;;;;;4958693;29;21024;-83
2022/10/27 04:58:26;;;;;;;793.87;717.70;;;10.80;99.90;;;;;;4958625;28;20538;-83
2022/10/27 05:00:53;;;;;;;803.40;726.70;;;10.70;99.90;;;;;;4958302;28;20456;-83
2022/10/27 05:03:19;;;;;;;802.97;726.10;;;10.80;99.90;;;;;;4957914;28;20456;-84
2022/10/27 05:05:46;;;;;;;801.87;725.00;;;10.70;99.90;;;;;;4957975;29;20466;-83
2022/10/27 05:08:15;;;;;;;790.00;713.57;;;10.70;99.90;;;;;;4957993;29;20460;-84
2022/10/27 05:10:41;;;;;;;796.13;719.97;;;10.70;99.90;;;;;;4958424;28;20484;-83
2022/10/27 05:13:08;;;;;;;795.47;719.60;;;10.80;99.90;;;;;;4957775;29;20990;-82
2022/10/27 05:15:35;;;;;;;781.17;705.10;;;10.80;99.90;;;;;;4957899;29;20479;-83
2022/10/27 05:18:01;;;;;;;786.60;710.37;;;10.80;99.90;;;;;;4957961;28;20543;-83
2022/10/27 05:20:28;;;;;;;787.30;711.50;;;10.80;99.90;;;;;;4957955;28;20484;-83
2022/10/27 05:22:55;;;;;;;793.80;718.53;;;10.90;99.90;;;;;;4958155;28;20455;-84
2022/10/27 05:25:23;;;;;;;792.93;717.13;;;11.00;99.90;;;;;;4957137;28;20460;-83
2022/10/27 05:27:49;;;;;;;780.07;704.80;;;11.00;99.90;;;;;;4958442;29;20456;-83
2022/10/27 05:30:16;;;;;;;779.00;703.03;;;11.00;99.90;;;;;;4958404;28;20482;-83
2022/10/27 05:32:43;;;;;;;793.13;717.37;;;11.00;99.90;;;;;;4957974;28;20464;-84
2022/10/27 05:35:10;;;;;;;799.33;723.27;;;11.00;99.90;;;;;;4957043;29;20484;-84
2022/10/27 05:37:37;;;;;;;798.20;722.43;;;11.00;99.90;;;;;;4957908;29;20467;-83
2022/10/27 05:40:05;;;;;;;803.77;727.67;;;11.10;99.90;;;;;;4957297;29;20495;-84
2022/10/27 05:42:33;;;;;;;793.03;717.50;;;11.00;99.90;;;;;;4957646;28;20460;-83
2022/10/27 05:45:00;;;;;;;800.67;724.60;;;11.10;99.90;;;;;;4957015;29;20463;-84
2022/10/27 05:47:30;;;;;;;794.37;719.77;;;10.90;99.90;;;;;;4956845;29;20961;-84
2022/10/27 05:49:56;;;;;;;780.93;706.50;;;10.90;99.90;;;;;;4957691;29;20479;-85
2022/10/27 05:52:23;;;;;;;778.77;705.03;;;10.90;99.90;;;;;;4957494;29;20838;-83
2022/10/27 05:54:50;;;;;;;793.80;718.37;;;10.80;99.90;;;;;;4957512;29;20476;-84
2022/10/27 05:57:16;;;;;;;819.47;743.53;;;10.90;99.90;;;;;;4956295;29;20456;-83
2022/10/27 05:59:44;;;;;;;778.90;703.23;;;10.90;99.90;;;;;;4957156;29;20998;-84
2022/10/27 06:02:11;;;;;;;799.97;724.30;;;10.90;99.90;;;;;;4958052;28;20456;-83
2022/10/27 06:04:38;;;;;;;786.10;710.77;;;11.00;99.90;;;;;;4962393;29;20969;-85
2022/10/27 06:07:05;;;;;;;799.47;724.10;;;11.00;99.90;;;;;;4960353;28;20463;-84
2022/10/27 06:09:32;;;;;;;800.17;724.13;;;10.90;99.90;;;;;;4961819;29;20479;-83
2022/10/27 06:11:58;;;;;;;803.20;727.97;;;11.00;99.90;;;;;;4961106;29;20456;-85
2022/10/27 06:14:25;;;;;;;782.93;707.97;;;10.90;99.90;;;;;;4960611;29;20470;-84
2022/10/27 06:16:53;;;;;;;784.23;708.77;;;10.90;99.90;;;;;;4961252;29;20459;-84
2022/10/27 06:19:20;;;;;;;786.00;711.30;;;10.80;99.90;;;;;;4960839;29;20479;-83
2022/10/27 06:21:47;;;;;;;773.77;699.67;;;10.80;99.90;;;;;;4961719;29;20466;-83
2022/10/27 06:24:13;;;;;;;762.03;687.93;;;10.80;99.90;;;;;;4960139;29;20460;-83
2022/10/27 06:26:40;;;;;;;771.23;696.17;;;10.80;99.90;;;;;;4960933;28;20455;-83
2022/10/27 06:29:07;;;;;;;775.77;700.13;;;10.90;99.90;;;;;;4960773;29;20480;-85
2022/10/27 06:31:33;;;;;;;786.47;711.10;;;10.80;99.90;;;;;;4960622;28;20451;-83
2022/10/27 06:34:02;;;;;;;769.53;694.70;;;10.90;99.90;;;;;;4959318;28;20472;-83
2022/10/27 06:36:28;;;;;;;776.17;701.87;;;10.90;99.90;;;;;;4960987;28;20876;-82
2022/10/27 06:38:58;;;;;;;761.77;687.53;;;11.00;99.90;;;;;;4961331;28;20494;-82
2022/10/27 06:41:25;;;;;;;770.23;695.80;;;11.00;99.90;;;;;;4959942;28;20455;-83
2022/10/27 06:43:52;;;;;;;776.20;701.30;;;11.00;99.90;;;;;;4959500;28;20455;-83
2022/10/27 06:46:19;;;;;;;773.93;699.93;;;11.00;99.90;;;;;;4960172;28;20813;-83
2022/10/27 06:48:45;;;;;;;781.63;705.50;;;11.00;99.90;;;;;;4959924;28;20466;-84
2022/10/27 06:51:13;;;;;;;783.67;708.43;;;11.00;99.90;;;;;;4960442;29;20463;-83
2022/10/27 06:53:40;;;;;;;783.50;708.40;;;11.10;99.90;;;;;;4959066;29;20459;-83
2022/10/27 06:56:08;;;;;;;777.20;701.80;;;11.20;99.90;;;;;;4959736;29;20483;-83
2022/10/27 06:58:38;;;;;;;764.73;689.90;;;11.20;99.90;;;;;;4960480;29;20470;-83
2022/10/27 07:01:04;;;;;;;767.30;693.23;;;11.30;99.90;;;;;;4960555;29;20546;-83
2022/10/27 07:03:34;;;;;;;766.17;692.43;;;11.40;99.90;;;;;;4963381;28;20535;-83
2022/10/27 07:06:00;;;;;;;768.83;695.33;;;11.60;99.90;;;;;;4961662;28;20455;-87
2022/10/27 07:08:28;;;;;;;767.87;694.10;;;11.50;99.90;;;;;;4964930;29;20456;-84
2022/10/27 07:10:55;;;;;;;777.00;704.37;;;11.70;99.90;;;;;;4964138;28;20459;-84
2022/10/27 07:13:22;;;;;;;770.27;698.47;;;11.80;99.90;;;;;;4964691;28;20847;-84
2022/10/27 07:15:49;;;;;;;767.43;696.43;;;11.90;99.90;;;;;;4965379;28;20483;-85
2022/10/27 07:18:15;;;;;;;757.07;687.07;;;12.10;99.90;;;;;;4964912;28;20975;-84
2022/10/27 07:20:45;;;;;;;767.17;697.97;;;12.10;99.90;;;;;;4962961;28;20479;-83
2022/10/27 07:23:12;;;;;;;759.33;691.43;;;12.20;99.90;;;;;;4961860;28;20954;-84
2022/10/27 07:25:41;;;;;;;758.90;692.47;;;12.20;99.90;;;;;;4962246;29;20845;-83
2022/10/27 07:28:08;;;;;;;767.23;701.50;;;12.30;99.90;;;;;;4963195;29;20468;-84
2022/10/27 07:30:36;;;;;;;760.17;695.67;;;12.40;99.90;;;;;;4960252;28;20478;-83
2022/10/27 07:33:03;;;;;;;744.60;681.87;;;12.50;99.90;;;;;;4959703;28;20463;-83
2022/10/27 07:35:33;;;;;;;739.97;678.53;;;12.60;99.90;;;;;;4958768;28;20483;-84
2022/10/27 07:37:59;;;;;;;731.50;672.20;;;12.60;99.90;;;;;;4959594;29;20459;-83
2022/10/27 07:40:26;;;;;;;721.20;666.00;;;12.70;99.90;;;;;;4959410;28;20492;-83
2022/10/27 07:42:56;;;;;;;691.77;641.67;;;12.80;99.90;;;;;;4959546;28;20460;-84
2022/10/27 07:45:24;;;;;;;691.60;643.00;;;12.90;99.90;;;;;;4959037;28;20456;-84
2022/10/27 07:47:52;;;;;;;688.70;640.70;;;13.00;99.90;;;;;;4960106;28;20460;-85
2022/10/27 07:50:20;;;;;;;667.13;622.87;;;13.10;99.90;;;;;;4959550;29;21021;-85
2022/10/27 07:52:49;;;;;;;665.73;623.60;;;13.20;99.90;;;;;;4960393;28;20455;-83
2022/10/27 07:55:17;;;;;;;670.27;627.67;;;13.20;99.90;;;;;;4959232;29;20488;-81
2022/10/27 07:57:44;;;;;;;660.77;618.83;;;13.30;99.90;;;;;;4959719;28;20937;-84
2022/10/27 08:00:14;;;;;;;657.70;617.50;;;13.40;99.90;;;;;;4959442;28;21053;-84
2022/10/27 08:02:42;;;;;;;654.43;616.53;;;13.40;99.90;;;;;;4959852;28;21025;-83
2022/10/27 08:05:10;;;;;;;641.13;604.23;;;13.50;99.90;;;;;;4959188;29;20839;-83
2022/10/27 08:07:37;;;;;;;625.63;590.30;;;13.60;99.90;;;;;;4959550;29;20812;-83
2022/10/27 08:10:04;;;;;;;611.23;577.73;;;13.70;99.90;;;;;;4959235;29;20484;-83
2022/10/27 08:12:31;;;;;;;592.90;560.50;;;13.70;99.90;;;;;;4959590;28;20464;-83
2022/10/27 08:14:58;;;;;;;572.07;542.60;;;13.80;99.90;;;;;;4958786;29;20455;-83
2022/10/27 08:17:27;;;;;;;536.83;510.03;;;13.80;99.90;;;;;;4959731;29;20834;-84
2022/10/27 08:19:54;;;;;;;495.83;471.43;;;14.00;99.90;;;;;;4959545;28;20578;-83
2022/10/27 08:22:21;;;;;;;338.47;323.57;;;14.10;99.90;;;;;;4958979;29;20448;-83
2022/10/27 08:24:47;;;;;;;340.03;325.47;;;14.20;99.90;;;;;;4958747;28;20456;-84
2022/10/27 08:27:14;;;;;;;259.30;248.23;;;14.30;99.90;;;;;;4958979;29;20842;-83
2022/10/27 08:29:41;;;;;;;250.30;239.50;;;14.40;99.90;;;;;;4959118;28;20498;-84
2022/10/27 08:32:08;;;;;;;194.83;186.50;;;14.50;99.90;;;;;;4959526;29;20456;-84
2022/10/27 08:34:36;;;;;;;208.47;200.23;;;14.50;99.90;;;;;;4958948;29;20447;-84
2022/10/27 08:37:03;;;;;;;134.00;129.10;;;14.60;99.90;;;;;;4958819;28;20476;-84
2022/10/27 08:39:30;;;;;;;122.30;117.70;;;14.70;99.90;;;;;;4958574;28;20494;-83
2022/10/27 08:42:02;;;;;;;133.67;128.53;;;14.80;99.90;;;;;;4958545;29;20849;-83
2022/10/27 08:44:32;;;;;;;92.97;89.37;;;14.90;99.90;;;;;;4958580;29;20486;-83
2022/10/27 08:47:02;;;;;;;63.60;60.90;;;15.00;99.90;;;;;;4958886;28;20983;-84
2022/10/27 08:49:34;;;;;;;30.10;28.63;;;15.10;99.90;;;;;;4958830;29;20483;-84
2022/10/27 08:52:12;;;;;;;31.77;30.07;;;15.20;99.90;;;;;;4958763;29;20471;-83
2022/10/27 08:54:40;;;;;;;52.70;50.37;;;15.30;99.90;;;;;;4958511;29;20463;-83
2022/10/27 08:57:12;;;;;;;30.63;29.00;;;15.40;99.90;;;;;;4958692;29;20488;-84
2022/10/27 08:59:39;;;;;;;15.10;13.90;;;15.60;99.90;;;;;;4959636;29;20488;-84
2022/10/27 09:02:24;;;;;;;17.80;16.50;;;15.50;99.90;;;;;;4960010;28;20880;-84
2022/10/27 09:05:07;;;;;;;11.93;10.80;;;15.70;99.90;;;;;;4958614;29;20977;-84
2022/10/27 09:07:40;;;;;;;10.33;9.53;;;15.80;99.90;;;;;;4958893;29;20454;-84
2022/10/27 09:10:19;;;;;;;7.43;6.17;;;16.00;99.90;;;;;;4958603;29;20487;-83
2022/10/27 09:13:03;;;;;;;12.17;6.30;;;16.10;99.90;;;;;;4959159;29;20459;-85
2022/10/27 09:15:48;;;;;;;7.47;6.43;;;16.20;99.90;;;;;;4957851;29;20470;-84
2022/10/27 09:18:22;;;;;;;6.17;3.23;;;16.30;99.90;;;;;;4958317;28;20455;-84
2022/10/27 09:20:51;;;;;;;5.50;2.20;;;16.40;99.90;;;;;;4958654;28;20484;-84
2022/10/27 09:23:25;;;;;;;4.27;2.30;;;16.40;99.90;;;;;;4976914;28;20496;-84
2022/10/27 09:25:53;;;;;;;4.57;2.70;;;16.50;99.90;;;;;;4977268;28;20870;-85
2022/10/27 09:28:27;;;;;;;4.43;2.27;;;16.60;99.90;;;;;;4976764;28;20461;-83
2022/10/27 09:30:55;;;;;;;4.80;2.53;;;16.90;99.90;;;;;;4977329;28;20455;-84
2022/10/27 09:33:27;;;;;;;8.97;2.57;;;17.50;99.90;;;;;;4976707;28;20462;-85
2022/10/27 09:35:54;;;;;;;4.90;1.80;;;18.00;99.90;;;;;;4976657;28;20795;-85
2022/10/27 09:38:26;;;;;;;6.93;2.00;;;18.20;99.90;;;;;;4975809;28;20460;-85
2022/10/27 09:40:53;;;;;;;4.60;1.70;;;18.50;99.90;;;;;;4976140;28;20481;-86
2022/10/27 09:43:22;;;;;;;9.03;2.57;;;18.60;99.90;;;;;;4976528;28;20458;-85
2022/10/27 09:45:54;;;;;;;6.30;1.93;;;18.70;99.00;;;;;;4978276;28;20445;-85
2022/10/27 09:48:24;;;;;;;5.50;1.80;;;18.80;98.00;;;;;;4978417;28;20462;-86
2022/10/27 09:50:54;;;;;;;5.20;1.73;;;19.20;98.10;;;;;;4978269;28;20472;-85
2022/10/27 09:53:40;;;;;;;10.17;1.97;;;19.40;97.10;;;;;;4977652;28;20867;-86
2022/10/27 09:56:11;;;;;;;10.70;1.70;;;19.70;96.50;;;;;;4978154;28;20482;-86
2022/10/27 09:58:55;;;;;;;6.50;2.00;;;20.10;95.10;;;;;;4978434;28;20455;-85
2022/10/27 10:01:23;;;;;;;6.73;2.10;;;20.00;95.10;;;;;;4978212;28;20550;-86
2022/10/27 10:03:59;;;;;;;5.67;1.60;;;19.90;94.70;;;;;;4977933;28;20458;-86
2022/10/27 10:06:31;;;;;;;6.40;2.00;;;20.20;93.80;;;;;;4978409;28;20474;-86
2022/10/27 10:09:17;;;;;;;5.17;2.10;;;20.40;93.50;;;;;;4978498;28;20499;-85
2022/10/27 10:11:43;;;;;;;7.73;1.67;;;20.80;93.40;;;;;;4979221;28;20491;-86
2022/10/27 10:14:21;;;;;;;4.90;1.60;;;20.70;92.70;;;;;;4979065;28;20871;-86
2022/10/27 10:16:49;;;;;;;4.37;1.47;;;20.90;92.40;;;;;;4979119;28;20552;-85
2022/10/27 10:19:18;;;;;;;7.70;2.23;;;20.80;92.70;;;;;;4979030;28;20476;-86
2022/10/27 10:21:48;;;;;;;5.43;1.67;;;21.00;91.40;;;;;;4979209;28;20467;-86
2022/10/27 10:24:21;;;;;;;5.60;2.00;;;21.40;92.20;;;;;;4978776;28;20497;-86
2022/10/27 10:26:50;;;;;;;11.57;2.90;;;21.50;91.70;;;;;;4980156;28;20443;-86
2022/10/27 10:29:27;;;;;;;9.57;1.97;;;21.80;91.20;;;;;;4981372;28;20481;-85
2022/10/27 10:32:09;;;;;;;6.73;1.90;;;22.00;90.60;;;;;;4979001;28;20478;-86
2022/10/27 10:34:36;;;;;;;6.83;1.90;;;22.20;89.90;;;;;;4977406;28;20823;-87
2022/10/27 10:37:04;;;;;;;5.43;1.40;;;22.30;88.20;;;;;;4978111;28;20482;-86
2022/10/27 10:39:36;;;;;;;9.23;2.03;;;22.40;88.30;;;;;;4978612;28;20493;-87
2022/10/27 10:42:14;;;;;;;6.60;2.03;;;22.40;87.10;;;;;;4982587;28;20450;-85
2022/10/27 10:44:41;;;;;;;6.70;1.63;;;22.40;87.50;;;;;;4994089;28;20461;-85
2022/10/27 10:47:22;;;;;;;18.87;3.87;;;22.30;86.80;;;;;;4990690;28;20450;-88
2022/10/27 10:49:53;;;;;;;5.67;1.73;;;22.50;87.40;;;;;;4996403;28;20462;-87
2022/10/27 10:52:23;;;;;;;8.73;2.10;;;22.60;87.80;;;;;;4993047;28;20454;-87
2022/10/27 10:54:51;;;;;;;5.97;1.80;;;22.70;85.40;;;;;;4985388;28;20453;-87
2022/10/27 10:57:27;;;;;;;7.90;2.10;;;22.90;85.40;;;;;;4984492;28;20502;-86
2022/10/27 10:59:55;;;;;;;7.83;2.20;;;23.20;82.90;;;;;;4985206;28;20482;-86
2022/10/27 11:02:28;;;;;;;5.40;1.87;;;23.50;82.30;;;;;;4984348;28;20458;-86
2022/10/27 11:04:57;;;;;;;5.30;1.93;;;23.60;81.20;;;;;;4984635;28;20525;-86
2022/10/27 11:07:26;;;;;;;7.47;1.80;;;23.80;80.80;;;;;;4984853;28;20462;-85
2022/10/27 11:10:00;;;;;;;6.87;2.27;;;23.70;79.30;;;;;;4986890;28;20515;-85
2022/10/27 11:12:35;;;;;;;5.73;1.83;;;23.80;79.50;;;;;;4987220;28;20458;-85
2022/10/27 11:15:06;;;;;;;10.10;2.00;;;24.10;79.20;;;;;;4986145;28;20477;-85
2022/10/27 11:17:36;;;;;;;8.83;2.10;;;24.50;78.20;;;;;;4989252;28;20475;-87
2022/10/27 11:20:06;;;;;;;9.93;2.37;;;24.30;75.30;;;;;;4982203;28;20474;-87
2022/10/27 11:22:33;;;;;;;12.87;2.50;;;24.10;76.30;;;;;;4986619;28;20461;-86
2022/10/27 11:25:05;;;;;;;8.03;1.70;;;24.00;75.20;;;;;;4987764;28;20459;-86
2022/10/27 11:27:39;;;;;;;9.60;1.73;;;23.80;74.40;;;;;;4988446;28;20458;-87
2022/10/27 11:30:17;;;;;;;5.93;2.10;;;24.40;74.30;;;;;;4988861;28;20479;-86
2022/10/27 11:32:50;;;;;;;7.73;2.10;;;23.80;73.60;;;;;;4986385;28;20465;-86
2022/10/27 11:35:23;;;;;;;9.00;2.23;;;23.70;75.90;;;;;;4987902;28;20450;-87
2022/10/27 11:37:58;;;;;;;11.30;4.17;;;23.80;75.70;;;;;;4989127;28;20479;-86
2022/10/27 11:40:33;;;;;;;10.27;2.80;;;23.70;76.30;;;;;;4987611;28;20559;-85
2022/10/27 11:43:04;;;;;;;10.20;2.00;;;23.50;76.40;;;;;;4988127;28;20462;-83
2022/10/27 11:45:39;;;;;;;7.20;2.17;;;23.80;76.80;;;;;;4988979;28;20465;-85
2022/10/27 11:48:11;;;;;;;12.10;2.43;;;23.90;74.70;;;;;;4988755;28;20458;-86
2022/10/27 11:50:45;;;;;;;6.43;2.00;;;23.70;75.40;;;;;;4985516;28;20479;-83
2022/10/27 11:53:13;;;;;;;8.30;1.90;;;23.50;76.90;;;;;;4984736;28;20458;-83
2022/10/27 11:55:54;;;;;;;12.60;2.30;;;24.00;75.60;;;;;;4981236;28;20477;-84
2022/10/27 11:58:28;;;;;;;8.80;2.57;;;24.00;73.70;;;;;;4981096;28;20486;-83
2022/10/27 12:01:04;;;;;;;7.60;2.13;;;24.10;73.80;;;;;;4981538;28;20462;-83
2022/10/27 12:03:47;;;;;;;7.90;2.40;;;24.10;73.80;;;;;;4982389;28;20454;-84
2022/10/27 12:06:20;;;;;;;9.10;2.40;;;23.90;73.70;;;;;;4980331;28;20490;-85
2022/10/27 12:08:58;;;;;;;8.73;1.97;;;24.10;72.60;;;;;;4987890;28;20463;-84
2022/10/27 12:11:40;;;;;;;8.97;2.10;;;24.60;73.50;;;;;;4987846;28;20805;-84
2022/10/27 12:14:12;;;;;;;6.20;2.00;;;25.20;71.70;;;;;;4988372;28;20466;-84
2022/10/27 12:16:46;;;;;;;10.07;1.87;;;24.90;69.80;;;;;;4988629;28;20475;-84
2022/10/27 12:19:18;;;;;;;8.93;2.60;;;25.10;69.50;;;;;;4990460;28;20478;-84
2022/10/27 12:21:48;;;;;;;13.80;2.70;;;24.70;70.00;;;;;;4990266;28;20474;-84
2022/10/27 12:24:21;;;;;;;6.70;1.70;;;24.60;72.30;;;;;;4989605;28;20461;-84
2022/10/27 12:26:53;;;;;;;9.30;2.00;;;24.50;72.00;;;;;;4988776;28;20431;-84
2022/10/27 12:29:24;;;;;;;5.47;1.87;;;24.60;73.00;;;;;;4988200;28;20479;-84
2022/10/27 12:31:57;;;;;;;17.43;2.70;;;24.50;74.20;;;;;;4988724;28;20533;-84